Canyon City, Oregon
Current Conditions -  °F | °C
As of 7:15 AM on Monday 24 Nov 2014 (Local Time) from KGCD Reporting Station
Clear Clear  
Wind Chill: -4°   Ceiling: Unl
Heat Index:   Visibility: 10mi
Dew Point: -2°   Wind: 7mph
Humidity: 93%   Direction: 140°SE
Pressure: 30.38"   Gusts: NA
Location:  44.39°N, 118.95°W
Report Text: KGCD 241515Z AUTO 14006KT 10SM CLR 00/M01 A3038 RMK AO2 T10051015
Loading
Personal Weather Stations






























Interactive Weather Map New forecast layout! Learn more

10-Day Weather Forecast

Advertisements
Track Severe Weather on mobile